createdAt,value
2023-11-30T00:00:18.543Z,15.35
2023-11-30T00:02:45.388Z,14.23
2023-11-30T00:05:12.111Z,14.60
2023-11-30T00:07:38.828Z,13.27
2023-11-30T00:10:05.920Z,13.50
2023-11-30T00:12:32.619Z,19.13
2023-11-30T00:14:59.338Z,16.48
2023-11-30T00:17:26.090Z,22.30
2023-11-30T00:19:52.819Z,16.43
2023-11-30T00:22:19.625Z,11.57
2023-11-30T00:24:46.330Z,16.05
2023-11-30T00:27:13.126Z,15.07
2023-11-30T00:29:39.832Z,14.70
2023-11-30T00:32:06.859Z,13.93
2023-11-30T00:34:33.596Z,13.80
2023-11-30T00:37:00.284Z,10.75
2023-11-30T00:39:27.100Z,15.68
2023-11-30T00:41:53.858Z,15.15
2023-11-30T00:44:22.452Z,15.90
2023-11-30T00:46:49.355Z,14.75
2023-11-30T00:49:16.148Z,16.92
2023-11-30T00:51:43.463Z,12.48
2023-11-30T00:54:10.207Z,15.43
2023-11-30T00:56:36.961Z,13.90
2023-11-30T00:59:05.384Z,12.60
2023-11-30T01:01:32.222Z,13.73
2023-11-30T01:03:59.027Z,14.48
2023-11-30T01:06:25.828Z,14.95
2023-11-30T01:08:52.529Z,15.47
2023-11-30T01:11:19.243Z,13.95
2023-11-30T01:13:45.998Z,13.00
2023-11-30T01:16:12.682Z,11.15
2023-11-30T01:18:40.092Z,11.07
2023-11-30T01:21:07.441Z,10.73
2023-11-30T01:23:34.117Z,11.35
2023-11-30T01:26:01.475Z,14.30
2023-11-30T01:28:28.170Z,10.32
2023-11-30T01:30:54.862Z,9.48
2023-11-30T01:33:22.407Z,9.13
2023-11-30T01:35:49.522Z,14.23
2023-11-30T01:38:16.341Z,11.77
2023-11-30T01:40:42.985Z,10.00
2023-11-30T01:43:09.686Z,12.60
2023-11-30T01:45:36.447Z,14.90
2023-11-30T01:48:03.327Z,11.02
2023-11-30T01:50:30.156Z,11.75
2023-11-30T01:52:56.851Z,15.98
2023-11-30T01:55:23.569Z,11.25
2023-11-30T01:57:50.237Z,9.73
2023-11-30T02:00:17.219Z,13.85
2023-11-30T02:02:43.886Z,12.45
2023-11-30T02:05:11.100Z,7.88
2023-11-30T02:07:37.915Z,9.23
2023-11-30T02:10:04.938Z,11.80
2023-11-30T02:12:31.736Z,11.40
2023-11-30T02:15:01.558Z,15.23
2023-11-30T02:17:28.340Z,16.77
2023-11-30T02:19:55.149Z,10.30
2023-11-30T02:22:21.875Z,10.20
2023-11-30T02:24:48.612Z,9.55
2023-11-30T02:27:15.388Z,13.65
2023-11-30T02:29:42.080Z,11.82
2023-11-30T02:32:08.815Z,11.15
2023-11-30T02:34:35.642Z,10.13
2023-11-30T02:37:02.379Z,11.23
2023-11-30T02:39:29.311Z,11.57
2023-11-30T02:41:56.063Z,9.82
2023-11-30T02:44:22.821Z,10.48
2023-11-30T02:46:49.527Z,9.37
2023-11-30T02:49:17.877Z,11.25
2023-11-30T02:51:44.662Z,9.18
2023-11-30T02:54:11.388Z,8.63
2023-11-30T02:56:41.530Z,8.98
2023-11-30T02:59:08.288Z,11.33
2023-11-30T03:01:35.119Z,10.52
2023-11-30T03:04:01.984Z,11.70
2023-11-30T03:06:28.848Z,13.43
2023-11-30T03:08:55.691Z,12.75
2023-11-30T03:11:23.979Z,7.73
2023-11-30T03:13:50.749Z,7.93
2023-11-30T03:16:24.921Z,7.57
2023-11-30T03:19:02.464Z,7.57
2023-11-30T03:21:37.583Z,13.23
2023-11-30T03:24:05.957Z,11.60
2023-11-30T03:26:33.931Z,8.48
2023-11-30T03:29:00.659Z,9.55
2023-11-30T03:31:27.397Z,9.43
2023-11-30T03:33:54.129Z,10.18
2023-11-30T03:36:20.929Z,7.50
2023-11-30T03:38:54.698Z,11.73
2023-11-30T03:41:22.113Z,10.43
2023-11-30T03:43:49.247Z,10.25
2023-11-30T03:46:16.316Z,6.57
2023-11-30T03:48:43.174Z,7.27
2023-11-30T03:51:10.998Z,13.35
2023-11-30T03:53:37.770Z,5.60
2023-11-30T03:56:04.823Z,13.80
2023-11-30T03:58:31.494Z,9.45
2023-11-30T04:00:58.219Z,13.53
2023-11-30T04:03:24.932Z,11.35
2023-11-30T04:05:51.746Z,8.27
2023-11-30T04:08:18.742Z,7.57
2023-11-30T04:10:45.669Z,9.20
2023-11-30T04:13:12.550Z,8.83
2023-11-30T04:15:39.229Z,11.35
2023-11-30T04:18:06.062Z,9.65
2023-11-30T04:20:32.810Z,8.40
2023-11-30T04:22:59.462Z,9.70
2023-11-30T04:25:26.131Z,9.67
2023-11-30T04:27:53.172Z,12.00
2023-11-30T04:30:19.907Z,10.93
2023-11-30T04:32:46.999Z,9.88
2023-11-30T04:35:13.918Z,9.73
2023-11-30T04:37:40.578Z,9.03
2023-11-30T04:40:07.846Z,9.13
2023-11-30T04:42:34.562Z,9.05
2023-11-30T04:45:01.369Z,12.05
2023-11-30T04:47:28.085Z,10.98
2023-11-30T04:49:54.765Z,12.90
2023-11-30T04:52:21.416Z,9.70
2023-11-30T04:54:48.155Z,12.00
2023-11-30T04:57:15.594Z,9.00
2023-11-30T04:59:42.442Z,8.55
2023-11-30T05:02:09.374Z,10.00
2023-11-30T05:04:36.275Z,10.50
2023-11-30T05:07:03.399Z,10.68
2023-11-30T05:09:30.161Z,11.70
2023-11-30T05:11:56.883Z,9.52
2023-11-30T05:14:23.589Z,10.47
2023-11-30T05:16:50.387Z,8.68
2023-11-30T05:19:17.097Z,10.65
2023-11-30T05:21:43.879Z,13.48
2023-11-30T05:24:10.580Z,10.10
2023-11-30T05:26:37.277Z,16.23
2023-11-30T05:29:04.132Z,9.38
2023-11-30T05:31:30.803Z,11.65
2023-11-30T05:33:57.466Z,11.60
2023-11-30T05:36:24.235Z,8.23
2023-11-30T05:38:51.599Z,11.80
2023-11-30T05:41:18.266Z,11.07
2023-11-30T05:43:44.941Z,9.88
2023-11-30T05:46:11.634Z,10.27
2023-11-30T05:48:38.395Z,9.90
2023-11-30T05:51:05.360Z,11.97
2023-11-30T05:53:32.093Z,8.35
2023-11-30T05:55:58.857Z,9.93
2023-11-30T05:58:25.591Z,15.13
2023-11-30T06:00:52.594Z,8.85
2023-11-30T06:03:19.409Z,9.70
2023-11-30T06:05:46.133Z,10.63
2023-11-30T06:08:13.113Z,9.38
2023-11-30T06:10:39.805Z,7.28
2023-11-30T06:13:08.987Z,11.68
2023-11-30T06:15:35.999Z,10.20
2023-11-30T06:18:02.896Z,9.05
2023-11-30T06:20:29.774Z,11.10
2023-11-30T06:22:56.544Z,12.65
2023-11-30T06:25:23.204Z,11.55
2023-11-30T06:27:49.991Z,10.23
2023-11-30T06:30:16.821Z,12.13
2023-11-30T06:32:43.610Z,10.90
2023-11-30T06:35:10.533Z,12.85
2023-11-30T06:37:37.192Z,8.77
2023-11-30T06:40:04.548Z,13.70
2023-11-30T06:42:31.297Z,13.05
2023-11-30T06:44:58.170Z,13.63
2023-11-30T06:47:24.859Z,14.18
2023-11-30T06:49:51.716Z,19.15
2023-11-30T06:52:18.385Z,11.40
2023-11-30T06:54:45.118Z,9.82
2023-11-30T06:57:11.918Z,10.38
2023-11-30T06:59:38.848Z,8.60
2023-11-30T07:02:05.563Z,9.88
2023-11-30T07:04:32.434Z,8.43
2023-11-30T07:06:59.270Z,12.43
2023-11-30T07:09:25.953Z,7.80
2023-11-30T07:11:52.858Z,11.57
2023-11-30T07:14:19.752Z,11.10
2023-11-30T07:16:46.585Z,15.33
2023-11-30T07:19:14.290Z,16.42
2023-11-30T07:21:41.097Z,12.27
2023-11-30T07:24:11.414Z,12.40
2023-11-30T07:26:39.132Z,11.05
2023-11-30T07:29:06.025Z,14.90
2023-11-30T07:31:32.752Z,13.25
2023-11-30T07:33:59.837Z,10.20
2023-11-30T07:36:26.577Z,10.13
2023-11-30T07:38:53.324Z,15.30
2023-11-30T07:41:20.022Z,12.93
2023-11-30T07:43:47.169Z,12.70
2023-11-30T07:46:13.903Z,12.90
2023-11-30T07:48:40.730Z,11.13
2023-11-30T07:51:07.847Z,13.60
2023-11-30T07:53:34.553Z,13.40
2023-11-30T07:56:01.693Z,12.82
2023-11-30T07:58:28.446Z,15.23
2023-11-30T08:00:55.179Z,15.25
2023-11-30T08:03:22.075Z,15.30
2023-11-30T08:05:48.944Z,12.13
2023-11-30T08:08:15.730Z,14.98
2023-11-30T08:10:42.434Z,17.92
2023-11-30T08:13:11.872Z,15.50
2023-11-30T08:15:38.875Z,15.43
2023-11-30T08:18:05.897Z,14.57
2023-11-30T08:20:32.634Z,12.35
2023-11-30T08:22:59.392Z,13.52
2023-11-30T08:25:26.605Z,11.02
2023-11-30T08:27:54.918Z,12.90
2023-11-30T08:30:22.218Z,15.17
2023-11-30T08:32:49.109Z,17.92
2023-11-30T08:35:15.971Z,9.65
2023-11-30T08:37:42.657Z,9.90
2023-11-30T08:40:11.837Z,15.32
2023-11-30T08:42:38.789Z,14.77
2023-11-30T08:45:06.797Z,16.55
2023-11-30T08:47:33.615Z,14.55
2023-11-30T08:50:00.371Z,13.82
2023-11-30T08:52:27.095Z,17.38
2023-11-30T08:54:54.222Z,15.53
2023-11-30T08:57:21.256Z,18.95
2023-11-30T08:59:48.089Z,25.58
2023-11-30T09:02:14.927Z,16.30
2023-11-30T09:04:41.901Z,15.80
2023-11-30T09:07:08.689Z,22.53
2023-11-30T09:09:36.027Z,18.88
2023-11-30T09:12:03.583Z,27.63
2023-11-30T09:14:31.892Z,15.15
2023-11-30T09:17:00.521Z,14.02
2023-11-30T09:19:27.285Z,18.87
2023-11-30T09:21:54.091Z,18.98
2023-11-30T09:24:23.254Z,16.42
2023-11-30T09:26:54.340Z,21.58
2023-11-30T09:29:21.124Z,21.52
2023-11-30T09:31:47.928Z,18.90
2023-11-30T09:34:14.674Z,18.55
2023-11-30T09:36:41.764Z,19.77
2023-11-30T09:39:15.189Z,16.50
2023-11-30T09:41:41.992Z,17.55
2023-11-30T09:44:09.988Z,17.80
2023-11-30T09:46:36.752Z,21.10
2023-11-30T09:49:04.611Z,19.52
2023-11-30T09:51:32.265Z,20.55
2023-11-30T09:53:59.192Z,15.98
2023-11-30T09:56:29.042Z,21.17
2023-11-30T09:58:56.029Z,17.02
2023-11-30T10:01:24.072Z,22.60
2023-11-30T10:03:50.968Z,18.90
2023-11-30T10:06:17.988Z,15.32
2023-11-30T10:08:45.103Z,21.47
2023-11-30T10:11:13.367Z,19.95
2023-11-30T10:13:40.226Z,18.30
2023-11-30T10:16:07.778Z,18.98
2023-11-30T10:18:35.619Z,18.17
2023-11-30T10:21:02.719Z,21.23
2023-11-30T10:23:30.522Z,19.83
2023-11-30T10:25:57.813Z,18.58
2023-11-30T10:28:24.719Z,17.70
2023-11-30T10:30:55.220Z,17.92
2023-11-30T10:33:24.238Z,22.40
2023-11-30T10:35:53.493Z,17.35
2023-11-30T10:38:22.713Z,19.27
2023-11-30T10:40:49.502Z,18.85
2023-11-30T10:43:16.920Z,18.80
2023-11-30T10:45:43.647Z,22.13
2023-11-30T10:48:12.274Z,18.85
2023-11-30T10:50:39.915Z,25.58
2023-11-30T10:53:18.899Z,22.48
2023-11-30T10:55:45.714Z,26.58
2023-11-30T10:58:12.677Z,22.57
2023-11-30T11:00:41.367Z,19.40
2023-11-30T11:03:08.655Z,21.98
2023-11-30T11:05:36.372Z,19.95
2023-11-30T11:08:03.664Z,15.38
2023-11-30T11:10:31.224Z,22.13
2023-11-30T11:13:00.975Z,23.02
2023-11-30T11:15:33.261Z,22.20
2023-11-30T11:18:08.632Z,18.58
2023-11-30T11:20:36.684Z,25.63
2023-11-30T11:23:14.335Z,19.83
2023-11-30T11:25:44.702Z,24.92
2023-11-30T11:28:12.546Z,25.70
2023-11-30T11:30:43.434Z,19.27
2023-11-30T11:33:10.289Z,24.80
2023-11-30T11:35:37.174Z,28.47
2023-11-30T11:38:03.892Z,23.08
2023-11-30T11:40:30.595Z,27.38
2023-11-30T11:42:57.321Z,19.42
2023-11-30T11:45:24.093Z,26.52
2023-11-30T11:47:50.887Z,22.23
2023-11-30T11:50:18.438Z,25.67
2023-11-30T11:52:45.153Z,21.42
2023-11-30T11:55:12.429Z,17.77
2023-11-30T11:57:39.827Z,19.88
2023-11-30T12:00:09.513Z,23.87
2023-11-30T12:02:36.294Z,20.15
2023-11-30T12:05:16.093Z,23.35
2023-11-30T12:07:59.083Z,26.25
2023-11-30T12:10:26.701Z,28.20
2023-11-30T12:12:54.255Z,22.63
2023-11-30T12:15:21.087Z,26.17
2023-11-30T12:17:47.779Z,24.15
2023-11-30T12:20:18.993Z,19.00
2023-11-30T12:22:46.440Z,26.23
2023-11-30T12:25:13.387Z,21.23
2023-11-30T12:27:40.142Z,22.95
2023-11-30T12:30:08.365Z,25.60
2023-11-30T12:32:37.903Z,23.55
2023-11-30T12:35:05.953Z,19.77
2023-11-30T12:37:32.979Z,23.07
2023-11-30T12:40:04.239Z,23.38
2023-11-30T12:42:31.137Z,22.45
2023-11-30T12:44:59.165Z,21.90
2023-11-30T12:47:26.346Z,18.45
2023-11-30T12:49:53.088Z,19.67
2023-11-30T12:52:21.857Z,23.73
2023-11-30T12:54:52.591Z,22.45
2023-11-30T12:57:20.305Z,17.35
2023-11-30T12:59:47.248Z,22.02
2023-11-30T13:02:14.096Z,17.50
2023-11-30T13:04:40.866Z,23.20
2023-11-30T13:07:07.590Z,20.92
2023-11-30T13:09:35.895Z,23.27
2023-11-30T13:12:03.128Z,17.92
2023-11-30T13:14:29.922Z,22.90
2023-11-30T13:16:57.217Z,16.63
2023-11-30T13:19:24.914Z,25.45
2023-11-30T13:21:53.177Z,16.88
2023-11-30T13:24:20.498Z,16.83
2023-11-30T13:26:48.891Z,17.03
2023-11-30T13:29:15.658Z,16.20
2023-11-30T13:31:42.573Z,15.00
2023-11-30T13:34:09.349Z,16.33
2023-11-30T13:36:36.058Z,16.52
2023-11-30T13:39:03.732Z,15.53
2023-11-30T13:41:30.423Z,13.77
2023-11-30T13:43:57.224Z,20.50
2023-11-30T13:46:25.151Z,17.08
2023-11-30T13:48:52.038Z,14.05
2023-11-30T13:51:18.906Z,13.97
2023-11-30T13:53:45.694Z,14.65
2023-11-30T13:56:12.448Z,13.85
2023-11-30T13:58:39.248Z,18.17
2023-11-30T14:01:06.306Z,22.42
2023-11-30T14:03:33.201Z,17.13
2023-11-30T14:05:59.973Z,17.92
2023-11-30T14:08:28.119Z,14.88
2023-11-30T14:10:54.801Z,16.17
2023-11-30T14:13:21.561Z,20.52
2023-11-30T14:15:49.065Z,16.40
2023-11-30T14:18:16.009Z,15.27
2023-11-30T14:20:42.834Z,21.40
2023-11-30T14:23:09.535Z,18.27
2023-11-30T14:25:36.290Z,15.07
2023-11-30T14:28:07.870Z,13.43
2023-11-30T14:30:39.200Z,13.27
2023-11-30T14:33:06.880Z,12.38
2023-11-30T14:35:34.389Z,23.15
2023-11-30T14:38:01.067Z,20.92
2023-11-30T14:40:28.150Z,11.10
2023-11-30T14:42:54.885Z,14.40
2023-11-30T14:45:21.625Z,12.88
2023-11-30T14:47:48.905Z,10.52
2023-11-30T14:50:17.016Z,13.07
2023-11-30T14:52:46.972Z,12.03
2023-11-30T14:55:14.271Z,9.77
2023-11-30T14:57:44.882Z,15.18
2023-11-30T15:00:13.844Z,12.07
2023-11-30T15:02:42.531Z,11.57
2023-11-30T15:05:11.631Z,10.60
2023-11-30T15:07:39.027Z,13.73
2023-11-30T15:10:08.629Z,12.02
2023-11-30T15:12:36.874Z,10.48
2023-11-30T15:15:13.359Z,19.05
2023-11-30T15:17:42.130Z,10.40
2023-11-30T15:20:13.224Z,10.57
2023-11-30T15:22:40.828Z,13.25
2023-11-30T15:25:08.675Z,12.95
2023-11-30T15:27:36.057Z,23.33
2023-11-30T15:30:07.311Z,12.23
2023-11-30T15:32:34.246Z,9.52
2023-11-30T15:35:01.112Z,13.93
2023-11-30T15:37:28.141Z,11.85
2023-11-30T15:39:55.703Z,12.95
2023-11-30T15:42:25.860Z,11.20
2023-11-30T15:44:52.793Z,9.55
2023-11-30T15:47:19.672Z,10.95
2023-11-30T15:49:46.675Z,11.90
2023-11-30T15:52:13.545Z,10.23
2023-11-30T15:54:41.002Z,12.47
2023-11-30T15:57:07.738Z,11.73
2023-11-30T15:59:34.484Z,11.73
2023-11-30T16:02:01.836Z,10.73
2023-11-30T16:04:28.696Z,10.63
2023-11-30T16:06:55.502Z,12.37
2023-11-30T16:09:22.317Z,12.80
2023-11-30T16:11:49.474Z,9.10
2023-11-30T16:14:16.955Z,9.13
2023-11-30T16:16:45.534Z,10.50
2023-11-30T16:19:12.481Z,8.30
2023-11-30T16:21:39.346Z,7.80
2023-11-30T16:24:06.387Z,9.85
2023-11-30T16:26:34.749Z,13.82
2023-11-30T16:29:01.584Z,7.35
2023-11-30T16:31:28.351Z,9.47
2023-11-30T16:33:55.488Z,9.25
2023-11-30T16:36:24.181Z,9.02
2023-11-30T16:38:51.470Z,10.60
2023-11-30T16:41:18.206Z,11.10
2023-11-30T16:43:45.200Z,8.87
2023-11-30T16:46:13.239Z,8.15
2023-11-30T16:48:40.064Z,5.63
2023-11-30T16:51:10.533Z,9.10
2023-11-30T16:53:37.477Z,7.10
2023-11-30T16:56:05.165Z,8.67
2023-11-30T16:58:32.716Z,10.05
2023-11-30T17:00:59.761Z,8.32
2023-11-30T17:03:26.977Z,8.65
2023-11-30T17:05:54.113Z,8.85
2023-11-30T17:08:20.824Z,8.17
2023-11-30T17:10:47.790Z,13.05
2023-11-30T17:13:14.610Z,7.25
2023-11-30T17:15:41.358Z,9.18
2023-11-30T17:18:08.179Z,11.23
2023-11-30T17:20:34.984Z,9.43
2023-11-30T17:23:01.709Z,8.18
2023-11-30T17:25:28.404Z,8.18
2023-11-30T17:27:55.343Z,9.35
2023-11-30T17:30:22.436Z,8.35
2023-11-30T17:32:49.498Z,6.73
2023-11-30T17:35:17.253Z,5.38
2023-11-30T17:37:44.402Z,5.88
2023-11-30T17:40:12.056Z,7.57
2023-11-30T17:42:39.287Z,6.18
2023-11-30T17:45:06.849Z,5.87
2023-11-30T17:47:34.680Z,9.23
2023-11-30T17:50:03.737Z,6.38
2023-11-30T17:52:31.483Z,8.55
2023-11-30T17:54:58.534Z,8.40
2023-11-30T17:57:25.739Z,7.03
2023-11-30T17:59:54.433Z,7.95
2023-11-30T18:02:22.836Z,7.65
2023-11-30T18:04:49.696Z,6.72
2023-11-30T18:07:16.733Z,7.38
2023-11-30T18:09:43.854Z,8.77
2023-11-30T18:12:10.555Z,8.45
2023-11-30T18:14:38.647Z,6.10
2023-11-30T18:17:05.576Z,8.93
2023-11-30T18:19:32.747Z,7.68
2023-11-30T18:21:59.588Z,6.33
2023-11-30T18:24:32.431Z,8.38
2023-11-30T18:27:02.682Z,8.07
2023-11-30T18:29:30.971Z,8.68
2023-11-30T18:31:57.829Z,9.18
2023-11-30T18:34:25.111Z,7.43
2023-11-30T18:36:53.772Z,8.02
2023-11-30T18:39:20.730Z,6.93
2023-11-30T18:41:48.102Z,6.20
2023-11-30T18:44:15.715Z,5.53
2023-11-30T18:46:43.336Z,27.87
2023-11-30T18:49:10.893Z,17.52
2023-11-30T18:51:38.385Z,11.18
2023-11-30T18:54:05.788Z,8.15
2023-11-30T18:56:33.321Z,9.82
2023-11-30T18:59:01.972Z,8.63
2023-11-30T19:01:30.819Z,8.68
2023-11-30T19:03:58.691Z,9.70
2023-11-30T19:06:26.031Z,10.25
2023-11-30T19:08:53.751Z,10.10
2023-11-30T19:11:23.984Z,8.73
2023-11-30T19:13:51.394Z,11.25
2023-11-30T19:16:20.342Z,7.10
2023-11-30T19:18:49.633Z,8.63
2023-11-30T19:21:17.400Z,8.60
2023-11-30T19:23:46.649Z,7.20
2023-11-30T19:26:14.151Z,7.50
2023-11-30T19:28:41.665Z,5.93
2023-11-30T19:31:08.983Z,6.93
2023-11-30T19:33:38.160Z,7.68
2023-11-30T19:36:06.195Z,8.40
2023-11-30T19:38:34.178Z,8.57
2023-11-30T19:41:01.941Z,9.32
2023-11-30T19:43:29.737Z,8.60
2023-11-30T19:46:00.287Z,8.63
2023-11-30T19:48:29.997Z,11.27
2023-11-30T19:50:57.890Z,12.40
2023-11-30T19:53:25.402Z,8.93
2023-11-30T19:55:52.840Z,6.80
2023-11-30T19:58:20.418Z,6.57
2023-11-30T20:00:49.377Z,9.77
2023-11-30T20:03:17.146Z,14.65
2023-11-30T20:05:44.900Z,10.18
2023-11-30T20:08:12.610Z,15.40
2023-11-30T20:10:40.338Z,14.38
2023-11-30T20:13:07.931Z,10.50
2023-11-30T20:15:35.367Z,13.68
2023-11-30T20:18:03.239Z,12.50
2023-11-30T20:20:30.829Z,11.30
2023-11-30T20:22:58.982Z,11.07
2023-11-30T20:25:26.744Z,12.07
2023-11-30T20:27:54.250Z,9.27
2023-11-30T20:30:21.789Z,8.48
2023-11-30T20:32:49.824Z,8.10
2023-11-30T20:35:17.334Z,8.40
2023-11-30T20:37:44.886Z,8.37
2023-11-30T20:40:12.636Z,8.40
2023-11-30T20:42:40.255Z,9.20
2023-11-30T20:45:07.709Z,7.38
2023-11-30T20:47:34.850Z,8.50
2023-11-30T20:50:01.860Z,7.37
2023-11-30T20:52:28.844Z,7.80
2023-11-30T20:54:56.094Z,7.88
2023-11-30T20:57:23.145Z,9.93
2023-11-30T20:59:50.056Z,7.80
2023-11-30T21:02:17.147Z,7.83
2023-11-30T21:04:44.030Z,10.30
2023-11-30T21:07:10.686Z,10.73
2023-11-30T21:09:37.890Z,10.52
2023-11-30T21:12:04.662Z,12.32
2023-11-30T21:14:31.356Z,16.13
2023-11-30T21:16:58.086Z,15.63
2023-11-30T21:19:25.970Z,14.65
2023-11-30T21:21:52.792Z,11.52
2023-11-30T21:24:19.802Z,9.18
2023-11-30T21:26:46.497Z,10.57
2023-11-30T21:29:13.258Z,10.38
2023-11-30T21:31:40.022Z,12.68
2023-11-30T21:34:06.909Z,14.82
2023-11-30T21:36:33.733Z,12.98
2023-11-30T21:39:01.129Z,12.30
2023-11-30T21:41:27.938Z,14.20
2023-11-30T21:43:54.638Z,13.43
2023-11-30T21:46:21.364Z,11.70
2023-11-30T21:48:48.287Z,13.30
2023-11-30T21:51:15.156Z,20.57
2023-11-30T21:53:41.807Z,18.63
2023-11-30T21:56:10.647Z,13.50
2023-11-30T21:58:37.824Z,13.98
2023-11-30T22:01:06.039Z,14.77
2023-11-30T22:03:33.010Z,13.60
2023-11-30T22:05:59.785Z,13.15
2023-11-30T22:08:28.436Z,11.02
2023-11-30T22:10:55.284Z,12.50
2023-11-30T22:13:22.047Z,8.40
2023-11-30T22:15:52.702Z,13.57
2023-11-30T22:18:23.607Z,12.07
2023-11-30T22:20:50.373Z,18.17
2023-11-30T22:23:17.085Z,9.73
2023-11-30T22:25:44.499Z,9.68
2023-11-30T22:28:12.040Z,9.67
2023-11-30T22:30:38.757Z,8.55
2023-11-30T22:33:05.445Z,9.00
2023-11-30T22:35:32.160Z,7.82
2023-11-30T22:37:58.860Z,7.13
2023-11-30T22:40:25.560Z,8.07
2023-11-30T22:42:52.240Z,5.93
2023-11-30T22:45:18.953Z,8.05
2023-11-30T22:47:45.675Z,8.13
2023-11-30T22:50:12.434Z,7.63
2023-11-30T22:52:39.207Z,8.63
2023-11-30T22:55:06.034Z,6.75
2023-11-30T22:57:32.812Z,7.95
2023-11-30T22:59:59.534Z,6.15
2023-11-30T23:02:28.386Z,6.00
2023-11-30T23:04:55.375Z,7.73
2023-11-30T23:07:22.139Z,6.82
2023-11-30T23:09:48.843Z,7.60
2023-11-30T23:12:16.373Z,8.88
2023-11-30T23:14:43.045Z,8.43
2023-11-30T23:17:10.072Z,9.30
2023-11-30T23:19:37.007Z,8.13
2023-11-30T23:22:03.756Z,8.05
2023-11-30T23:24:32.066Z,7.80
2023-11-30T23:26:59.141Z,9.00
2023-11-30T23:29:25.849Z,8.20
2023-11-30T23:31:52.544Z,8.35
2023-11-30T23:34:19.248Z,6.28
2023-11-30T23:36:46.006Z,8.88
2023-11-30T23:39:12.664Z,8.85
2023-11-30T23:41:39.332Z,7.33
2023-11-30T23:44:06.014Z,8.35
2023-11-30T23:46:32.745Z,10.43
2023-11-30T23:48:59.553Z,8.70
2023-11-30T23:51:26.228Z,9.50
2023-11-30T23:53:53.023Z,8.77
2023-11-30T23:56:19.685Z,7.35
2023-11-30T23:58:46.373Z,8.20
